Time;durP1;ratioP1;P1;durP2;ratioP2;P2;SDS_P1;SDS_P2;PMS_P1;PMS_P2;Temp;Humidity;BMP_temperature;BMP_pressure;BME280_temperature;BME280_humidity;BME280_pressure;Samples;Min_cycle;Max_cycle;Signal;HPM_P1;HPM_P2
2021/08/19 00:02:16;;;;;;;3.25;1.82;;;;;;;16.28;63.31;100130.17;1761970;81;21042;-79
2021/08/19 00:04:42;;;;;;;2.55;2.02;;;;;;;16.29;63.37;100134.50;1760807;80;21088;-79
2021/08/19 00:07:08;;;;;;;2.15;1.95;;;;;;;16.30;63.45;100133.47;1761786;81;21014;-78
2021/08/19 00:09:36;;;;;;;3.00;2.10;;;;;;;16.30;63.53;100133.47;1761431;81;21058;-79
2021/08/19 00:12:08;;;;;;;2.60;2.00;;;;;;;16.31;63.61;100129.74;1761741;81;21034;-78
2021/08/19 00:14:37;;;;;;;2.58;2.15;;;;;;;16.32;63.69;100127.37;1761774;81;21567;-78
2021/08/19 00:17:04;;;;;;;2.72;2.30;;;;;;;16.33;63.76;100126.82;1761963;81;21070;-79
2021/08/19 00:19:30;;;;;;;2.00;1.80;;;;;;;16.33;63.83;100124.96;1761815;80;21041;-79
2021/08/19 00:21:56;;;;;;;3.67;1.90;;;;;;;16.34;63.88;100126.62;1761710;81;21087;-78
2021/08/19 00:24:23;;;;;;;3.58;2.00;;;;;;;16.34;63.95;100121.75;1761895;81;21003;-79
2021/08/19 00:26:49;;;;;;;2.75;1.77;;;;;;;16.34;64.03;100129.83;1761453;81;21445;-79
2021/08/19 00:29:15;;;;;;;5.00;2.20;;;;;;;16.34;64.08;100131.17;1761474;81;21125;-79
2021/08/19 00:31:41;;;;;;;3.47;2.33;;;;;;;16.34;64.18;100129.31;1761227;81;20966;-79
2021/08/19 00:34:06;;;;;;;4.58;2.10;;;;;;;16.35;64.22;100125.59;1761450;81;21143;-79
2021/08/19 00:36:33;;;;;;;5.45;2.42;;;;;;;16.37;64.27;100126.19;1761376;81;21488;-79
2021/08/19 00:38:59;;;;;;;5.00;2.62;;;;;;;16.37;64.29;100119.46;1761792;81;21526;-78
2021/08/19 00:41:25;;;;;;;2.85;2.15;;;;;;;16.37;64.40;100125.36;1761725;81;21155;-78
2021/08/19 00:43:51;;;;;;;3.58;2.50;;;;;;;16.35;64.48;100120.20;1761198;81;20955;-79
2021/08/19 00:46:35;;;;;;;4.20;2.75;;;;;;;16.34;64.55;100128.48;1761725;81;21211;-79
2021/08/19 00:49:05;;;;;;;2.62;2.33;;;;;;;16.32;64.60;100123.33;1761937;81;21058;-79
2021/08/19 00:51:47;;;;;;;3.12;2.65;;;;;;;16.30;64.68;100126.73;1761476;81;20994;-79
2021/08/19 00:54:17;;;;;;;3.70;2.77;;;;;;;16.28;64.79;100123.96;1761749;81;21076;-78
2021/08/19 00:56:44;;;;;;;4.42;2.80;;;;;;;16.26;64.84;100121.98;1761426;81;21316;-78
2021/08/19 00:59:13;;;;;;;3.22;2.87;;;;;;;16.25;64.91;100128.43;1760967;81;21058;-78
2021/08/19 01:01:39;;;;;;;3.67;2.83;;;;;;;16.23;65.00;100126.45;1761603;81;21542;-78
2021/08/19 01:04:06;;;;;;;3.75;3.20;;;;;;;16.22;65.05;100120.23;1761836;81;21471;-79
2021/08/19 01:06:34;;;;;;;3.95;2.67;;;;;;;16.23;65.13;100123.77;1761538;81;21229;-78
2021/08/19 01:09:00;;;;;;;3.87;3.02;;;;;;;16.21;65.21;100123.99;1761597;81;21049;-78
2021/08/19 01:11:26;;;;;;;6.15;3.55;;;;;;;16.21;65.29;100125.85;1761760;81;21519;-78
2021/08/19 01:13:52;;;;;;;5.30;3.40;;;;;;;16.21;65.35;100127.20;1761528;81;21013;-78
2021/08/19 01:16:18;;;;;;;5.28;3.55;;;;;;;16.21;65.41;100117.78;1761861;81;21105;-78
2021/08/19 01:18:46;;;;;;;6.72;3.35;;;;;;;16.21;65.47;100128.03;1761566;81;21119;-78
2021/08/19 01:21:15;;;;;;;3.83;3.20;;;;;;;16.23;65.53;100128.63;1761639;81;20966;-78
2021/08/19 01:23:41;;;;;;;4.92;3.47;;;;;;;16.21;65.61;100127.20;1761837;81;21739;-78
2021/08/19 01:26:11;;;;;;;5.85;3.77;;;;;;;16.21;65.69;100123.99;1761789;81;21011;-78
2021/08/19 01:28:37;;;;;;;4.47;3.37;;;;;;;16.20;65.74;100123.68;1761306;81;21041;-78
2021/08/19 01:31:07;;;;;;;5.37;3.20;;;;;;;16.21;65.81;100130.72;1761721;81;21128;-78
2021/08/19 01:33:33;;;;;;;3.75;3.30;;;;;;;16.22;65.85;100127.52;1760371;81;25733;-78
2021/08/19 01:35:59;;;;;;;5.05;3.08;;;;;;;16.21;65.92;100125.85;1758648;81;21019;-78
2021/08/19 01:38:31;;;;;;;6.08;3.50;;;;;;;16.20;65.99;100125.02;1758835;81;21073;-78
2021/08/19 01:40:57;;;;;;;4.20;3.47;;;;;;;16.17;66.05;100125.45;1758555;81;21535;-78
2021/08/19 01:43:27;;;;;;;3.87;3.37;;;;;;;16.18;66.10;100119.56;1759081;81;21661;-78
2021/08/19 01:45:56;;;;;;;3.70;3.40;;;;;;;16.18;66.18;100123.59;1759145;81;21582;-78
2021/08/19 01:48:22;;;;;;;4.10;2.87;;;;;;;16.18;66.23;100121.73;1759079;81;20995;-78
2021/08/19 01:50:48;;;;;;;4.95;3.27;;;;;;;16.19;66.27;100122.02;1759080;80;21558;-78
2021/08/19 01:53:14;;;;;;;4.67;3.45;;;;;;;16.19;66.31;100120.67;1758284;81;21003;-78
2021/08/19 01:55:40;;;;;;;5.97;3.70;;;;;;;16.19;66.36;100109.91;1759027;81;21134;-78
2021/08/19 01:58:07;;;;;;;6.15;3.33;;;;;;;16.20;66.39;100116.95;1758833;81;20979;-78
2021/08/19 02:00:33;;;;;;;6.20;3.72;;;;;;;16.20;66.45;100114.27;1759015;81;21492;-78
2021/08/19 02:03:03;;;;;;;6.28;3.40;;;;;;;16.22;66.48;100111.37;1758926;81;20990;-78
2021/08/19 02:05:29;;;;;;;4.40;3.47;;;;;;;16.20;66.51;100113.43;1759010;81;21545;-78
2021/08/19 02:07:55;;;;;;;3.52;3.22;;;;;;;16.18;66.56;100115.01;1733697;81;21125;-78
2021/08/19 02:10:21;;;;;;;3.75;3.37;;;;;;;16.18;66.61;100104.24;1758585;81;20998;-78
2021/08/19 02:12:47;;;;;;;5.28;3.55;;;;;;;16.18;66.65;100099.38;1758910;81;21050;-78
2021/08/19 02:15:13;;;;;;;4.47;3.42;;;;;;;16.19;66.69;100105.88;1758605;81;20994;-78
2021/08/19 02:17:40;;;;;;;4.90;3.42;;;;;;;16.19;66.74;100101.00;1758830;81;20995;-78
2021/08/19 02:20:07;;;;;;;3.52;3.22;;;;;;;16.18;66.76;100108.28;1733616;81;21046;-78
2021/08/19 02:22:33;;;;;;;4.62;3.70;;;;;;;16.18;66.82;100102.07;1759110;81;21006;-78
2021/08/19 02:24:59;;;;;;;4.90;3.75;;;;;;;16.19;66.84;100103.19;1733604;81;21078;-78
2021/08/19 02:27:26;;;;;;;5.45;4.03;;;;;;;16.19;66.87;100092.42;1758780;81;20995;-78
2021/08/19 02:29:52;;;;;;;3.87;3.45;;;;;;;16.20;66.90;100104.84;1758922;81;21494;-78
2021/08/19 02:32:18;;;;;;;4.83;3.67;;;;;;;16.21;66.95;100096.26;1759022;81;21789;-78
2021/08/19 02:34:44;;;;;;;5.25;3.50;;;;;;;16.21;66.97;100091.70;1753548;81;20995;-78
2021/08/19 02:37:10;;;;;;;4.62;3.65;;;;;;;16.21;67.02;100089.02;1753006;81;21047;-78
2021/08/19 02:39:37;;;;;;;4.10;3.70;;;;;;;16.22;67.06;100087.95;1753129;81;21089;-78
2021/08/19 02:42:03;;;;;;;3.62;3.27;;;;;;;16.22;67.08;100090.64;1753259;81;21010;-78
2021/08/19 02:44:29;;;;;;;3.52;3.22;;;;;;;16.22;67.14;100082.57;1753002;81;21110;-78
2021/08/19 02:46:55;;;;;;;4.03;3.42;;;;;;;16.21;67.18;100075.56;1753203;81;20999;-78
2021/08/19 02:49:21;;;;;;;4.00;3.45;;;;;;;16.24;67.23;100076.98;1753137;81;20998;-78
2021/08/19 02:51:47;;;;;;;3.75;2.95;;;;;;;16.26;67.28;100073.03;1753301;81;21026;-78
2021/08/19 02:54:13;;;;;;;3.60;3.30;;;;;;;16.27;67.30;100074.69;1752777;81;21562;-78
2021/08/19 02:56:40;;;;;;;4.37;3.40;;;;;;;16.27;67.33;100068.48;1753155;81;21920;-78
2021/08/19 02:59:06;;;;;;;6.28;4.05;;;;;;;16.29;67.39;100076.64;1753114;81;21042;-78
2021/08/19 03:01:32;;;;;;;6.30;3.98;;;;;;;16.29;67.40;100082.02;1753267;81;21022;-78
2021/08/19 03:03:58;;;;;;;5.17;3.95;;;;;;;16.31;67.46;100073.23;1753271;81;21006;-78
2021/08/19 03:06:24;;;;;;;4.25;3.85;;;;;;;16.31;67.49;100077.27;1753084;81;21038;-78
2021/08/19 03:08:50;;;;;;;4.78;3.70;;;;;;;16.33;67.52;100075.69;1752992;81;21128;-78
2021/08/19 03:11:16;;;;;;;7.00;3.72;;;;;;;16.33;67.54;100079.20;1752960;81;21047;-78
2021/08/19 03:13:42;;;;;;;3.92;3.52;;;;;;;16.34;67.57;100071.96;1753369;81;20978;-78
2021/08/19 03:16:08;;;;;;;3.47;3.02;;;;;;;16.34;67.63;100075.48;1753136;81;21502;-78
2021/08/19 03:18:35;;;;;;;4.25;3.85;;;;;;;16.36;67.68;100074.73;1753341;81;21451;-78
2021/08/19 03:21:02;;;;;;;6.20;3.45;;;;;;;16.35;67.70;100079.84;1753359;81;21096;-78
2021/08/19 03:23:28;;;;;;;5.00;3.37;;;;;;;16.35;67.76;100077.15;1752860;81;21031;-78
2021/08/19 03:25:54;;;;;;;6.30;3.58;;;;;;;16.35;67.80;100085.22;1753186;81;21002;-79
2021/08/19 03:28:22;;;;;;;3.77;2.90;;;;;;;16.35;67.84;100077.15;1752842;81;21010;-79
2021/08/19 03:30:49;;;;;;;4.75;3.20;;;;;;;16.35;67.84;100077.15;1746074;81;21585;-79
2021/08/19 03:33:17;;;;;;;4.10;3.60;;;;;;;16.35;67.88;100077.15;1752967;81;21304;-78
2021/08/19 03:35:45;;;;;;;6.92;3.60;;;;;;;16.37;67.94;100077.74;1753113;81;21035;-78
2021/08/19 03:38:11;;;;;;;3.42;3.10;;;;;;;16.38;67.99;100083.95;1753002;81;21139;-79
2021/08/19 03:40:37;;;;;;;4.78;3.52;;;;;;;16.37;68.01;100082.30;1753259;81;20899;-78
2021/08/19 03:43:03;;;;;;;4.25;3.20;;;;;;;16.37;68.05;100075.56;1753280;81;20959;-79
2021/08/19 03:45:29;;;;;;;5.33;3.20;;;;;;;16.36;68.07;100082.02;1753062;81;21104;-79
2021/08/19 03:47:55;;;;;;;3.42;3.12;;;;;;;16.36;68.12;100074.73;1753188;81;21052;-78
2021/08/19 03:50:21;;;;;;;4.08;3.33;;;;;;;16.36;68.14;100076.08;1753106;81;21022;-78
2021/08/19 03:52:48;;;;;;;3.15;2.85;;;;;;;16.36;68.18;100080.12;1753037;81;21479;-78
2021/08/19 03:55:14;;;;;;;5.95;3.30;;;;;;;16.36;68.20;100070.70;1753004;81;21058;-78
2021/08/19 03:57:40;;;;;;;3.67;3.12;;;;;;;16.35;68.24;100073.11;1753178;81;21135;-79
2021/08/19 04:00:07;;;;;;;4.92;3.27;;;;;;;16.38;68.29;100078.57;1753418;80;20991;-79
2021/08/19 04:02:33;;;;;;;5.40;3.52;;;;;;;16.38;68.36;100075.36;1752901;81;21010;-78
2021/08/19 04:04:59;;;;;;;4.17;3.27;;;;;;;16.39;68.36;100071.64;1753166;81;20884;-78
2021/08/19 04:07:25;;;;;;;5.72;3.08;;;;;;;16.40;68.42;100074.61;1753043;81;21011;-78
2021/08/19 04:09:51;;;;;;;7.20;3.35;;;;;;;16.41;68.45;100079.48;1753096;81;21163;-78
2021/08/19 04:12:17;;;;;;;6.83;3.45;;;;;;;16.43;68.49;100077.42;1753526;81;20887;-78
2021/08/19 04:14:43;;;;;;;4.28;3.08;;;;;;;16.45;68.52;100080.19;1753157;81;21471;-78
2021/08/19 04:17:10;;;;;;;3.12;2.58;;;;;;;16.46;68.54;100085.06;1753110;81;21011;-78
2021/08/19 04:19:36;;;;;;;3.55;2.92;;;;;;;16.47;68.58;100084.00;1753212;81;21487;-78
2021/08/19 04:22:03;;;;;;;7.12;3.12;;;;;;;16.47;68.60;100080.79;1753303;81;21444;-78
2021/08/19 04:24:29;;;;;;;3.12;2.70;;;;;;;16.48;68.64;100081.62;1753008;81;20991;-78
2021/08/19 04:26:55;;;;;;;3.83;2.92;;;;;;;16.51;68.68;100083.88;1753208;81;20995;-78
2021/08/19 04:29:21;;;;;;;3.55;3.05;;;;;;;16.52;68.70;100084.19;1752830;81;21296;-78
2021/08/19 04:31:47;;;;;;;5.90;3.77;;;;;;;16.54;68.75;100086.67;1752945;81;21054;-78
2021/08/19 04:34:13;;;;;;;4.08;3.37;;;;;;;16.55;68.76;100078.37;1755299;81;21151;-78
2021/08/19 04:36:39;;;;;;;3.70;3.08;;;;;;;16.56;68.82;100076.02;1758671;81;20987;-78
2021/08/19 04:39:05;;;;;;;6.22;2.95;;;;;;;16.59;68.83;100080.14;1759217;81;21066;-78
2021/08/19 04:41:32;;;;;;;3.22;2.92;;;;;;;16.62;68.86;100086.43;1758886;81;21035;-78
2021/08/19 04:43:58;;;;;;;4.60;3.02;;;;;;;16.63;68.89;100080.84;1759223;81;21563;-78
2021/08/19 04:46:24;;;;;;;3.95;3.15;;;;;;;16.65;68.90;100087.34;1759111;81;20950;-78
2021/08/19 04:48:50;;;;;;;3.52;3.15;;;;;;;16.70;68.94;100095.61;1758748;81;21712;-78
2021/08/19 04:51:18;;;;;;;5.12;2.83;;;;;;;16.71;68.93;100097.27;1759026;81;20994;-78
2021/08/19 04:53:44;;;;;;;4.65;3.25;;;;;;;16.75;68.96;100097.11;1758938;81;21039;-78
2021/08/19 04:56:10;;;;;;;7.33;2.85;;;;;;;16.77;68.98;100088.31;1758901;81;21467;-78
2021/08/19 04:58:37;;;;;;;3.75;2.62;;;;;;;16.80;68.97;100090.05;1746437;81;21830;-78
2021/08/19 05:01:03;;;;;;;3.20;2.90;;;;;;;16.83;68.97;100092.81;1728783;83;21018;-78
2021/08/19 05:03:29;;;;;;;3.50;3.20;;;;;;;16.85;69.00;100096.14;1734872;81;21019;-78
2021/08/19 05:05:55;;;;;;;6.47;3.30;;;;;;;16.89;68.97;100091.94;1749274;81;21086;-78
2021/08/19 05:08:21;;;;;;;11.65;3.58;;;;;;;16.92;68.99;100096.37;1681734;84;21039;-78
2021/08/19 05:10:47;;;;;;;6.53;3.10;;;;;;;16.97;68.98;100097.90;1688048;84;21140;-78
2021/08/19 05:13:13;;;;;;;3.90;3.00;;;;;;;17.08;68.96;100097.71;1701339;83;21015;-78
2021/08/19 05:15:39;;;;;;;3.52;3.12;;;;;;;17.13;68.93;100091.16;1713314;83;21007;-79
2021/08/19 05:18:05;;;;;;;5.45;2.83;;;;;;;17.15;68.91;100094.44;1697969;83;20997;-78
2021/08/19 05:20:31;;;;;;;6.25;3.60;;;;;;;17.17;68.88;100096.38;1707053;83;20986;-78
2021/08/19 05:22:57;;;;;;;3.75;2.90;;;;;;;17.17;68.83;100108.51;1710307;83;21985;-78
2021/08/19 05:25:23;;;;;;;6.17;3.98;;;;;;;17.16;68.82;100100.66;1709982;83;20992;-78
2021/08/19 05:27:49;;;;;;;13.08;4.40;;;;;;;17.17;68.81;100103.67;1697021;84;21534;-78
2021/08/19 05:30:15;;;;;;;6.20;4.28;;;;;;;17.23;68.78;100106.30;1704586;84;21014;-78
2021/08/19 05:32:41;;;;;;;4.08;3.02;;;;;;;17.44;68.76;100111.82;1704754;84;21538;-78
2021/08/19 05:35:09;;;;;;;7.22;3.05;;;;;;;17.68;68.67;100104.77;1712244;83;21783;-78
2021/08/19 05:37:35;;;;;;;4.78;3.35;;;;;;;17.85;68.59;100106.66;1698759;84;21024;-78
2021/08/19 06:32:42;;;;;;;7.22;4.15;;;;;;;18.71;66.62;100119.12;1790034;79;22367;-78
2021/08/19 06:35:09;;;;;;;5.92;4.20;;;;;;;18.80;66.43;100118.55;1759574;80;21071;-78
2021/08/19 06:37:36;;;;;;;6.28;4.47;;;;;;;18.84;66.23;100127.85;1758953;80;21062;-78
2021/08/19 06:40:03;;;;;;;3.95;3.50;;;;;;;18.85;66.06;100124.63;1759963;80;21043;-78
2021/08/19 06:42:29;;;;;;;5.80;4.03;;;;;;;18.85;65.96;100125.98;1760193;80;21507;-77
2021/08/19 06:44:55;;;;;;;8.70;4.28;;;;;;;18.80;65.79;100118.55;1767402;80;21548;-78
2021/08/19 06:47:21;;;;;;;10.03;4.70;;;;;;;18.77;65.64;100120.89;1761213;80;21042;-77
2021/08/19 06:49:47;;;;;;;4.35;3.87;;;;;;;18.79;65.59;100122.30;1759815;80;21124;-77
2021/08/19 06:52:13;;;;;;;5.80;4.25;;;;;;;18.83;65.45;100117.27;1762848;80;21073;-77
2021/08/19 06:54:39;;;;;;;9.98;4.05;;;;;;;18.99;65.36;100122.03;1760153;80;20999;-76
2021/08/19 06:57:06;;;;;;;12.33;4.62;;;;;;;19.22;65.18;100123.94;1765015;80;21086;-78
2021/08/19 06:59:32;;;;;;;8.25;3.62;;;;;;;19.30;64.88;100120.90;1772371;80;21498;-77
2021/08/19 07:01:58;;;;;;;7.83;3.90;;;;;;;19.27;64.61;100118.14;1763879;80;21629;-77
2021/08/19 07:04:24;;;;;;;7.42;3.80;;;;;;;19.23;64.32;100124.23;1761336;80;20880;-77
2021/08/19 07:06:52;;;;;;;6.20;3.40;;;;;;;19.18;64.17;100125.45;1765289;80;21089;-77
2021/08/19 07:09:18;;;;;;;4.65;3.55;;;;;;;19.18;63.86;100120.05;1760430;80;21007;-78
2021/08/19 07:11:44;;;;;;;4.03;3.58;;;;;;;19.26;63.63;100120.55;1759797;80;20924;-77
2021/08/19 07:14:10;;;;;;;10.45;4.37;;;;;;;19.37;63.49;100121.61;1761699;80;21317;-77
2021/08/19 07:16:37;;;;;;;6.00;3.65;;;;;;;19.31;63.22;100120.68;1764091;80;20990;-77
2021/08/19 07:19:05;;;;;;;6.12;3.80;;;;;;;19.20;63.07;100116.08;1767570;79;21089;-77
2021/08/19 07:21:31;;;;;;;9.40;3.87;;;;;;;19.14;62.93;100118.33;1761811;80;21008;-77
2021/08/19 07:23:57;;;;;;;5.25;3.75;;;;;;;18.99;62.67;100116.62;1763648;80;21071;-78
2021/08/19 07:26:23;;;;;;;4.72;3.92;;;;;;;18.91;62.53;100120.99;1761165;80;21005;-77
2021/08/19 07:28:50;;;;;;;6.60;3.83;;;;;;;18.91;62.51;100123.70;1756581;80;21007;-76
2021/08/19 07:31:17;;;;;;;6.55;4.15;;;;;;;18.89;62.44;100127.17;1754368;81;21008;-77
2021/08/19 07:33:43;;;;;;;7.15;4.08;;;;;;;18.91;62.45;100116.94;1749923;81;21016;-77
2021/08/19 07:36:10;;;;;;;8.13;4.70;;;;;;;18.89;62.40;100122.56;1758121;81;21617;-78
2021/08/19 07:38:36;;;;;;;5.00;4.47;;;;;;;18.82;62.29;100122.39;1750260;81;21327;-79
2021/08/19 07:41:02;;;;;;;7.08;4.87;;;;;;;18.82;62.31;100123.19;1745696;81;21028;-78
2021/08/19 07:43:28;;;;;;;5.03;4.17;;;;;;;18.91;62.30;100119.64;1750098;81;20991;-78
2021/08/19 07:45:57;;;;;;;5.08;4.62;;;;;;;19.00;62.27;100127.70;1750015;81;20899;-78
2021/08/19 07:48:22;;;;;;;8.08;4.15;;;;;;;18.97;62.21;100122.77;1751180;81;21083;-79
2021/08/19 07:50:48;;;;;;;5.50;4.90;;;;;;;18.90;62.22;100112.58;1752193;81;21012;-78
2021/08/19 07:53:14;;;;;;;8.08;4.92;;;;;;;18.80;62.25;100118.55;1757493;81;20884;-78
2021/08/19 07:55:40;;;;;;;5.30;4.80;;;;;;;18.68;62.25;100120.38;1752306;81;21048;-78
2021/08/19 07:58:06;;;;;;;7.62;5.95;;;;;;;18.56;62.33;100121.40;1751600;81;21069;-78
2021/08/19 08:00:33;;;;;;;7.58;6.12;;;;;;;18.48;62.43;100125.20;1757471;81;21554;-79
2021/08/19 08:03:00;;;;;;;5.95;5.37;;;;;;;18.43;62.53;100128.61;1754924;81;21851;-79
2021/08/19 08:05:28;;;;;;;9.48;5.70;;;;;;;18.45;62.62;100127.84;1757189;81;21093;-78
2021/08/19 08:08:04;;;;;;;6.80;5.55;;;;;;;18.50;62.74;100131.22;1755001;81;21490;-78
2021/08/19 08:10:30;;;;;;;7.33;5.97;;;;;;;18.65;62.84;100124.06;1756641;81;21566;-79
2021/08/19 08:12:59;;;;;;;7.03;6.28;;;;;;;18.84;62.86;100129.73;1755794;81;21091;-77
2021/08/19 08:15:26;;;;;;;8.38;6.12;;;;;;;19.05;62.83;100131.08;1754878;81;21094;-77
2021/08/19 08:17:52;;;;;;;8.88;5.72;;;;;;;19.30;62.84;100131.19;1747596;81;21074;-77
2021/08/19 08:20:18;;;;;;;18.20;5.92;;;;;;;19.47;62.75;100135.93;1747301;81;21020;-78
2021/08/19 08:22:45;;;;;;;9.78;5.10;;;;;;;19.57;62.47;100137.00;1756559;81;21576;-79
2021/08/19 08:25:12;;;;;;;8.23;4.92;;;;;;;19.51;62.26;100143.88;1758939;81;21023;-78
2021/08/19 08:28:00;;;;;;;6.53;5.20;;;;;;;19.49;62.05;100141.42;1753799;81;21017;-77
2021/08/19 08:30:26;;;;;;;8.70;5.05;;;;;;;19.49;61.88;100147.36;1752060;81;21014;-77
2021/08/19 08:32:52;;;;;;;7.15;4.72;;;;;;;19.56;61.85;100152.13;1753563;81;21032;-77
2021/08/19 08:35:18;;;;;;;11.65;5.12;;;;;;;19.55;61.77;100147.77;1750258;81;21564;-78
2021/08/19 08:37:45;;;;;;;5.78;4.85;;;;;;;19.53;61.69;100150.69;1748226;81;21030;-78
2021/08/19 08:40:13;;;;;;;10.32;8.53;;;;;;;19.40;61.56;100151.72;1751333;81;21696;-79
2021/08/19 08:42:39;;;;;;;9.48;4.45;;;;;;;19.35;61.52;100159.69;1752020;81;21056;-79
2021/08/19 08:45:06;;;;;;;6.78;5.55;;;;;;;19.38;61.46;100159.78;1712332;82;20922;-79
2021/08/19 08:47:34;;;;;;;6.45;4.78;;;;;;;19.33;61.34;100156.41;1723381;82;21481;-80
2021/08/19 08:50:00;;;;;;;5.17;4.37;;;;;;;19.34;61.28;100163.48;1722548;82;21003;-80
2021/08/19 08:52:27;;;;;;;5.37;3.80;;;;;;;19.42;61.27;100165.85;1718253;82;21137;-80
2021/08/19 08:54:53;;;;;;;9.15;4.90;;;;;;;19.49;61.10;100171.18;1718253;82;20984;-79
2021/08/19 08:57:19;;;;;;;6.47;4.53;;;;;;;19.48;61.04;100168.70;1724569;82;21053;-80
2021/08/19 08:59:45;;;;;;;14.65;4.55;;;;;;;19.48;61.01;100172.75;1719508;82;21007;-80
2021/08/19 09:02:11;;;;;;;5.67;4.15;;;;;;;19.77;61.06;100165.87;1721492;82;21139;-79
2021/08/19 09:04:37;;;;;;;5.95;4.00;;;;;;;20.12;60.88;100168.58;1713227;83;21206;-80
2021/08/19 09:07:05;;;;;;;8.38;3.72;;;;;;;20.18;60.38;100174.92;1722470;82;21697;-79
2021/08/19 09:09:31;;;;;;;10.65;3.52;;;;;;;20.09;60.15;100178.51;1711616;82;21057;-78
2021/08/19 09:12:03;;;;;;;4.92;4.42;;;;;;;19.97;59.89;100181.77;1719077;82;21002;-79
2021/08/19 09:14:32;;;;;;;10.82;4.20;;;;;;;19.95;59.84;100177.11;1717630;82;21050;-80
2021/08/19 09:16:58;;;;;;;6.42;3.92;;;;;;;20.04;59.86;100183.00;1716925;82;21182;-80
2021/08/19 09:19:34;;;;;;;10.75;4.20;;;;;;;20.36;59.83;100181.05;1712925;82;21115;-80
2021/08/19 09:22:02;;;;;;;9.93;4.00;;;;;;;20.56;59.63;100184.70;1711053;81;21005;-78
2021/08/19 09:24:31;;;;;;;5.83;3.93;;;;;;;20.56;59.40;100173.03;1719161;82;21066;-78
2021/08/19 09:27:15;;;;;;;5.58;3.80;;;;;;;20.62;59.43;100181.58;1717120;82;21132;-79
2021/08/19 09:29:41;;;;;;;7.92;3.55;;;;;;;20.65;59.17;100179.73;1700635;82;21147;-79
2021/08/19 09:32:18;;;;;;;8.60;3.50;;;;;;;20.42;58.95;100181.97;1712186;82;21709;-80
2021/08/19 09:34:47;;;;;;;5.30;3.47;;;;;;;20.25;58.89;100184.56;1701038;83;21073;-79
2021/08/19 09:37:18;;;;;;;12.60;4.10;;;;;;;20.29;58.99;100191.19;1699154;83;21092;-78
2021/08/19 09:39:47;;;;;;;8.38;4.03;;;;;;;20.44;58.93;100186.08;1708611;83;21031;-79
2021/08/19 09:42:13;;;;;;;;;;;;;;;20.69;58.87;100182.26;1713525;82;21927;-78
2021/08/19 09:44:46;;;;;;;7.17;3.60;;;;;;;20.75;58.55;100180.76;1681565;83;20240;-79
2021/08/19 09:47:29;;;;;;;6.05;3.37;;;;;;;20.72;58.43;100181.22;1693187;84;21033;-78
2021/08/19 09:50:21;;;;;;;6.75;3.37;;;;;;;20.59;58.33;100179.32;1677901;84;21048;-79
2021/08/19 09:52:49;;;;;;;7.17;3.35;;;;;;;20.50;58.39;100186.19;1698638;84;21082;-78
2021/08/19 09:55:25;;;;;;;7.65;3.33;;;;;;;20.48;58.33;100186.98;1698522;84;21227;-78
2021/08/19 09:57:53;;;;;;;4.53;3.50;;;;;;;20.40;58.31;100190.34;1699704;82;21143;-78
2021/08/19 10:00:37;;;;;;;5.62;3.65;;;;;;;20.54;58.41;100196.84;1693420;84;21032;-79
2021/08/19 10:03:02;;;;;;;27.95;4.58;;;;;;;20.76;58.18;100186.45;1703592;84;21070;-79
2021/08/19 10:05:28;;;;;;;8.65;3.98;;;;;;;20.71;58.06;100195.02;1705360;84;21614;-79
2021/08/19 10:07:54;;;;;;;6.33;4.03;;;;;;;20.63;58.07;100188.09;1702470;84;21753;-79
2021/08/19 10:10:20;;;;;;;17.23;4.75;;;;;;;20.59;58.07;100192.87;1694827;84;21023;-80
2021/08/19 10:12:47;;;;;;;4.03;3.62;;;;;;;20.42;57.98;100196.34;1704958;82;21005;-79
2021/08/19 10:15:13;;;;;;;6.30;4.40;;;;;;;20.17;57.92;100195.75;1695168;82;21109;-79
2021/08/19 10:17:48;;;;;;;6.42;4.15;;;;;;;20.04;58.00;100197.89;1702173;83;21509;-79
2021/08/19 10:20:21;;;;;;;5.83;4.85;;;;;;;20.07;58.10;100198.24;1693068;83;22115;-79
2021/08/19 10:22:47;;;;;;;7.70;4.22;;;;;;;20.05;58.18;100209.85;1695096;83;21034;-79
2021/08/19 10:25:13;;;;;;;5.53;4.25;;;;;;;19.97;58.31;100210.20;1694788;84;21036;-79
2021/08/19 10:27:39;;;;;;;8.43;5.85;;;;;;;19.96;58.47;100207.19;1692137;83;21036;-78
2021/08/19 10:30:07;;;;;;;6.42;4.40;;;;;;;20.08;58.51;100203.96;1697283;83;21114;-79
2021/08/19 10:32:39;;;;;;;4.62;3.83;;;;;;;20.28;58.57;100201.72;1698453;84;21704;-79
2021/08/19 10:35:12;;;;;;;9.53;4.92;;;;;;;20.59;58.58;100207.25;1701480;83;21050;-79
2021/08/19 10:37:50;;;;;;;7.47;4.30;;;;;;;20.72;58.37;100199.39;1701604;84;21535;-79
2021/08/19 10:40:28;;;;;;;11.45;4.90;;;;;;;20.74;58.31;100203.50;1701572;84;20984;-79
2021/08/19 10:42:56;;;;;;;8.05;5.08;;;;;;;20.91;58.35;100204.90;1685321;84;21529;-79
2021/08/19 10:45:34;;;;;;;9.88;4.95;;;;;;;20.89;58.19;100203.80;1701770;84;21124;-79
2021/08/19 10:48:12;;;;;;;16.65;6.00;;;;;;;20.83;58.18;100205.27;1701606;84;20996;-79
2021/08/19 10:50:43;;;;;;;9.10;4.97;;;;;;;21.02;58.25;100198.61;1701540;84;21050;-79
2021/08/19 10:53:21;;;;;;;9.85;5.15;;;;;;;21.03;58.01;100205.69;1701599;83;21068;-79
2021/08/19 10:55:52;;;;;;;9.58;4.20;;;;;;;20.88;57.69;100205.39;1699743;83;21078;-79
2021/08/19 10:58:32;;;;;;;6.62;3.98;;;;;;;20.66;57.48;100212.00;1701773;84;21153;-79
2021/08/19 11:01:14;;;;;;;8.13;4.87;;;;;;;20.48;57.25;100205.94;1701789;84;20984;-79
2021/08/19 11:03:44;;;;;;;10.63;4.90;;;;;;;20.40;57.14;100213.37;1701645;84;21054;-78
2021/08/19 11:06:22;;;;;;;11.43;5.70;;;;;;;20.36;57.07;100221.69;1701605;83;21031;-78
2021/08/19 11:08:56;;;;;;;11.38;5.60;;;;;;;20.37;57.05;100213.83;1701635;84;21074;-78
2021/08/19 11:11:36;;;;;;;6.72;6.10;;;;;;;20.43;57.06;100219.67;1701787;84;21850;-78
2021/08/19 11:14:12;;;;;;;7.80;5.55;;;;;;;20.46;57.00;100220.23;1701501;84;20991;-78
2021/08/19 11:16:41;;;;;;;14.13;6.75;;;;;;;20.51;57.05;100217.66;1701823;84;21011;-78
2021/08/19 11:19:20;;;;;;;7.00;4.95;;;;;;;20.63;57.09;100221.97;1701658;83;21047;-78
2021/08/19 11:21:51;;;;;;;;;;;;;;;20.70;57.11;100223.19;1704240;84;21112;-78
2021/08/19 11:24:18;;;;;;;5.95;4.70;;;;;;;20.74;57.14;100225.71;1702000;84;21140;-78
2021/08/19 11:27:08;;;;;;;7.75;4.33;;;;;;;21.03;57.25;100221.95;1701853;84;21019;-78
2021/08/19 11:29:44;;;;;;;10.25;4.50;;;;;;;21.32;56.97;100216.81;1701547;84;21030;-78
2021/08/19 11:32:12;;;;;;;7.80;4.40;;;;;;;21.34;56.46;100221.48;1701008;84;21047;-78
2021/08/19 11:34:46;;;;;;;7.55;3.90;;;;;;;21.51;56.28;100222.02;1696581;84;21007;-78
2021/08/19 11:37:31;;;;;;;9.28;4.30;;;;;;;21.64;56.11;100221.16;1696403;84;21279;-78
2021/08/19 11:39:59;;;;;;;10.45;4.15;;;;;;;21.78;55.76;100220.28;1696605;84;21492;-78
2021/08/19 11:42:34;;;;;;;11.33;5.62;;;;;;;21.69;55.36;100224.50;1696690;84;21015;-78
2021/08/19 11:45:20;;;;;;;11.65;4.90;;;;;;;21.72;55.26;100218.05;1696481;84;21082;-78
2021/08/19 11:47:47;;;;;;;14.23;9.23;;;;;;;21.68;55.00;100221.48;1696248;84;21535;-79
2021/08/19 11:50:13;;;;;;;8.15;3.85;;;;;;;21.72;55.01;100225.36;1696575;84;21056;-79
2021/08/19 11:52:39;;;;;;;6.20;4.53;;;;;;;21.93;55.04;100219.21;1696491;84;21066;-79
2021/08/19 11:55:07;;;;;;;9.15;4.30;;;;;;;22.10;55.02;100222.72;1696068;84;21094;-79
2021/08/19 11:57:33;;;;;;;13.55;5.50;;;;;;;22.13;54.86;100226.30;1678418;84;20967;-79
2021/08/19 12:00:06;;;;;;;14.23;4.58;;;;;;;21.93;54.56;100221.09;1696108;84;21063;-79
2021/08/19 12:02:32;;;;;;;9.65;4.90;;;;;;;21.65;54.45;100223.34;1696443;84;21208;-79
2021/08/19 12:05:04;;;;;;;5.97;4.00;;;;;;;21.31;54.38;100228.75;1696511;84;20913;-78
2021/08/19 12:07:31;;;;;;;5.60;3.95;;;;;;;21.17;54.49;100232.01;1696528;83;21023;-78
2021/08/19 12:09:57;;;;;;;6.90;3.80;;;;;;;21.09;54.55;100231.83;1696334;84;21047;-78
2021/08/19 12:12:26;;;;;;;8.28;3.65;;;;;;;21.01;54.63;100237.63;1696590;84;21621;-79
2021/08/19 12:14:51;;;;;;;6.35;4.10;;;;;;;20.97;54.72;100236.46;1696280;83;21168;-79
2021/08/19 12:17:17;;;;;;;7.25;4.03;;;;;;;20.96;54.80;100241.61;1696598;84;21543;-79
2021/08/19 12:19:43;;;;;;;6.92;3.95;;;;;;;20.98;54.86;100238.11;1696473;84;21010;-78
2021/08/19 12:22:09;;;;;;;4.30;3.75;;;;;;;20.93;54.94;100248.88;1696523;84;21043;-78